sensor_id;sensor_type;location;lat;lon;timestamp;P1;durP1;ratioP1;P2;durP2;ratioP2
51298;SDS011;37382;45.192;9.790;2023-02-01T05:07:20;52.58;;;29.67;;
51298;SDS011;37382;45.192;9.790;2023-02-01T05:09:47;46.13;;;27.63;;
51298;SDS011;37382;45.192;9.790;2023-02-01T05:12:15;45.22;;;27.23;;
51298;SDS011;37382;45.192;9.790;2023-02-01T05:15:01;42.55;;;27.05;;
51298;SDS011;37382;45.192;9.790;2023-02-01T05:17:28;54.47;;;28.52;;
51298;SDS011;37382;45.192;9.790;2023-02-01T05:19:56;70.78;;;41.10;;
51298;SDS011;37382;45.192;9.790;2023-02-01T05:22:23;61.85;;;37.92;;
51298;SDS011;37382;45.192;9.790;2023-02-01T05:24:51;56.30;;;33.90;;
51298;SDS011;37382;45.192;9.790;2023-02-01T05:27:18;57.58;;;36.45;;
51298;SDS011;37382;45.192;9.790;2023-02-01T05:29:46;59.92;;;33.65;;
51298;SDS011;37382;45.192;9.790;2023-02-01T05:32:13;58.35;;;34.55;;
51298;SDS011;37382;45.192;9.790;2023-02-01T05:34:48;62.67;;;38.55;;
51298;SDS011;37382;45.192;9.790;2023-02-01T05:37:16;98.15;;;65.32;;
51298;SDS011;37382;45.192;9.790;2023-02-01T05:39:43;73.05;;;45.08;;
51298;SDS011;37382;45.192;9.790;2023-02-01T05:42:11;79.18;;;47.63;;
51298;SDS011;37382;45.192;9.790;2023-02-01T05:44:38;77.63;;;48.20;;
51298;SDS011;37382;45.192;9.790;2023-02-01T05:47:06;71.47;;;45.78;;
51298;SDS011;37382;45.192;9.790;2023-02-01T05:49:35;62.28;;;39.85;;
51298;SDS011;37382;45.192;9.790;2023-02-01T05:52:02;62.53;;;38.15;;
51298;SDS011;37382;45.192;9.790;2023-02-01T05:54:30;60.72;;;37.67;;
51298;SDS011;37382;45.192;9.790;2023-02-01T05:56:57;57.20;;;35.67;;
51298;SDS011;37382;45.192;9.790;2023-02-01T05:59:25;62.92;;;35.88;;
51298;SDS011;37382;45.192;9.790;2023-02-01T06:01:53;54.15;;;34.95;;
51298;SDS011;37382;45.192;9.790;2023-02-01T06:04:20;60.63;;;34.58;;
51298;SDS011;37382;45.192;9.790;2023-02-01T06:06:48;79.88;;;49.50;;
51298;SDS011;37382;45.192;9.790;2023-02-01T06:09:17;57.05;;;32.40;;
51298;SDS011;37382;45.192;9.790;2023-02-01T06:11:45;60.15;;;36.10;;
51298;SDS011;37382;45.192;9.790;2023-02-01T06:14:12;66.47;;;41.97;;
51298;SDS011;37382;45.192;9.790;2023-02-01T06:16:39;67.47;;;41.08;;
51298;SDS011;37382;45.192;9.790;2023-02-01T06:19:07;60.15;;;37.03;;
51298;SDS011;37382;45.192;9.790;2023-02-01T06:21:35;58.28;;;34.58;;
51298;SDS011;37382;45.192;9.790;2023-02-01T06:24:03;58.15;;;36.17;;
51298;SDS011;37382;45.192;9.790;2023-02-01T06:26:31;57.72;;;35.22;;
51298;SDS011;37382;45.192;9.790;2023-02-01T06:28:59;57.72;;;34.83;;
51298;SDS011;37382;45.192;9.790;2023-02-01T06:31:27;56.55;;;34.22;;
51298;SDS011;37382;45.192;9.790;2023-02-01T06:33:55;55.40;;;31.80;;
51298;SDS011;37382;45.192;9.790;2023-02-01T06:36:23;53.50;;;33.72;;
51298;SDS011;37382;45.192;9.790;2023-02-01T06:38:51;47.60;;;30.80;;
51298;SDS011;37382;45.192;9.790;2023-02-01T06:41:18;52.15;;;31.40;;
51298;SDS011;37382;45.192;9.790;2023-02-01T06:43:47;52.28;;;28.90;;
51298;SDS011;37382;45.192;9.790;2023-02-01T06:46:15;45.13;;;27.98;;
51298;SDS011;37382;45.192;9.790;2023-02-01T06:48:42;51.65;;;28.60;;
51298;SDS011;37382;45.192;9.790;2023-02-01T06:51:18;49.40;;;29.02;;
51298;SDS011;37382;45.192;9.790;2023-02-01T06:53:49;51.03;;;30.52;;
51298;SDS011;37382;45.192;9.790;2023-02-01T06:56:16;68.90;;;31.35;;
51298;SDS011;37382;45.192;9.790;2023-02-01T06:58:44;52.53;;;29.63;;
51298;SDS011;37382;45.192;9.790;2023-02-01T07:01:12;55.55;;;30.70;;
51298;SDS011;37382;45.192;9.790;2023-02-01T07:03:40;48.50;;;29.83;;
51298;SDS011;37382;45.192;9.790;2023-02-01T07:06:08;48.30;;;29.27;;
51298;SDS011;37382;45.192;9.790;2023-02-01T07:08:37;55.88;;;29.92;;
51298;SDS011;37382;45.192;9.790;2023-02-01T07:11:09;58.85;;;29.35;;
51298;SDS011;37382;45.192;9.790;2023-02-01T07:13:38;55.33;;;31.65;;
51298;SDS011;37382;45.192;9.790;2023-02-01T07:16:06;47.85;;;29.75;;
51298;SDS011;37382;45.192;9.790;2023-02-01T07:18:37;50.30;;;28.75;;
51298;SDS011;37382;45.192;9.790;2023-02-01T07:21:05;65.88;;;36.78;;
51298;SDS011;37382;45.192;9.790;2023-02-01T07:23:32;52.47;;;33.10;;
51298;SDS011;37382;45.192;9.790;2023-02-01T07:26:01;53.58;;;28.10;;
51298;SDS011;37382;45.192;9.790;2023-02-01T07:28:31;54.70;;;28.50;;
51298;SDS011;37382;45.192;9.790;2023-02-01T07:31:03;49.15;;;26.02;;
51298;SDS011;37382;45.192;9.790;2023-02-01T07:33:35;37.78;;;24.20;;
51298;SDS011;37382;45.192;9.790;2023-02-01T07:36:05;46.97;;;27.60;;
51298;SDS011;37382;45.192;9.790;2023-02-01T07:38:34;49.65;;;27.88;;
51298;SDS011;37382;45.192;9.790;2023-02-01T07:41:03;48.38;;;25.88;;
51298;SDS011;37382;45.192;9.790;2023-02-01T07:43:32;51.95;;;27.58;;
51298;SDS011;37382;45.192;9.790;2023-02-01T07:46:02;45.55;;;26.98;;
51298;SDS011;37382;45.192;9.790;2023-02-01T07:48:31;48.83;;;26.73;;
51298;SDS011;37382;45.192;9.790;2023-02-01T07:51:04;51.85;;;27.13;;
51298;SDS011;37382;45.192;9.790;2023-02-01T07:53:35;46.78;;;28.27;;
51298;SDS011;37382;45.192;9.790;2023-02-01T07:56:03;52.78;;;29.23;;
51298;SDS011;37382;45.192;9.790;2023-02-01T07:58:37;55.55;;;28.65;;
51298;SDS011;37382;45.192;9.790;2023-02-01T08:01:04;55.90;;;28.20;;
51298;SDS011;37382;45.192;9.790;2023-02-01T08:03:48;51.75;;;28.55;;
51298;SDS011;37382;45.192;9.790;2023-02-01T08:06:20;58.90;;;31.83;;
51298;SDS011;37382;45.192;9.790;2023-02-01T08:08:49;56.22;;;29.95;;
51298;SDS011;37382;45.192;9.790;2023-02-01T08:11:19;53.13;;;30.65;;
51298;SDS011;37382;45.192;9.790;2023-02-01T08:13:49;66.20;;;37.10;;
51298;SDS011;37382;45.192;9.790;2023-02-01T08:16:17;67.50;;;38.17;;
51298;SDS011;37382;45.192;9.790;2023-02-01T08:18:47;71.50;;;39.80;;
51298;SDS011;37382;45.192;9.790;2023-02-01T08:21:15;87.28;;;46.97;;
51298;SDS011;37382;45.192;9.790;2023-02-01T08:23:45;83.70;;;43.08;;
51298;SDS011;37382;45.192;9.790;2023-02-01T08:28:43;72.88;;;40.25;;
51298;SDS011;37382;45.192;9.790;2023-02-01T08:31:20;74.68;;;37.25;;
51298;SDS011;37382;45.192;9.790;2023-02-01T08:33:51;57.60;;;33.20;;
51298;SDS011;37382;45.192;9.790;2023-02-01T08:36:24;54.10;;;28.90;;
51298;SDS011;37382;45.192;9.790;2023-02-01T08:38:52;55.72;;;29.25;;
51298;SDS011;37382;45.192;9.790;2023-02-01T08:41:21;51.25;;;30.45;;
51298;SDS011;37382;45.192;9.790;2023-02-01T08:43:50;57.80;;;31.30;;
51298;SDS011;37382;45.192;9.790;2023-02-01T08:46:18;54.60;;;32.70;;
51298;SDS011;37382;45.192;9.790;2023-02-01T08:48:46;54.55;;;32.55;;
51298;SDS011;37382;45.192;9.790;2023-02-01T08:51:15;55.92;;;31.45;;
51298;SDS011;37382;45.192;9.790;2023-02-01T08:53:44;61.90;;;32.50;;
51298;SDS011;37382;45.192;9.790;2023-02-01T08:56:13;61.05;;;30.33;;
51298;SDS011;37382;45.192;9.790;2023-02-01T08:58:42;55.63;;;31.65;;
51298;SDS011;37382;45.192;9.790;2023-02-01T09:01:11;55.47;;;31.85;;
51298;SDS011;37382;45.192;9.790;2023-02-01T09:03:41;60.47;;;30.90;;
51298;SDS011;37382;45.192;9.790;2023-02-01T09:06:10;60.50;;;31.70;;
51298;SDS011;37382;45.192;9.790;2023-02-01T09:08:39;63.97;;;31.70;;
51298;SDS011;37382;45.192;9.790;2023-02-01T09:11:10;59.50;;;31.98;;
51298;SDS011;37382;45.192;9.790;2023-02-01T09:13:40;64.45;;;34.20;;
51298;SDS011;37382;45.192;9.790;2023-02-01T09:16:08;57.75;;;32.95;;
51298;SDS011;37382;45.192;9.790;2023-02-01T09:18:37;54.55;;;31.15;;
51298;SDS011;37382;45.192;9.790;2023-02-01T09:21:23;60.60;;;31.88;;
51298;SDS011;37382;45.192;9.790;2023-02-01T09:23:51;59.65;;;30.98;;
51298;SDS011;37382;45.192;9.790;2023-02-01T09:26:18;58.58;;;32.65;;
51298;SDS011;37382;45.192;9.790;2023-02-01T09:28:57;58.38;;;31.05;;
51298;SDS011;37382;45.192;9.790;2023-02-01T09:31:24;65.72;;;33.67;;
51298;SDS011;37382;45.192;9.790;2023-02-01T09:33:52;58.55;;;33.90;;
51298;SDS011;37382;45.192;9.790;2023-02-01T09:36:19;64.25;;;34.05;;
51298;SDS011;37382;45.192;9.790;2023-02-01T09:38:47;61.03;;;34.58;;
51298;SDS011;37382;45.192;9.790;2023-02-01T09:44:23;65.65;;;34.28;;
51298;SDS011;37382;45.192;9.790;2023-02-01T09:47:11;68.28;;;36.15;;
51298;SDS011;37382;45.192;9.790;2023-02-01T09:52:44;64.40;;;35.10;;
51298;SDS011;37382;45.192;9.790;2023-02-01T09:58:11;64.82;;;35.88;;
51298;SDS011;37382;45.192;9.790;2023-02-01T10:00:46;67.97;;;36.88;;
51298;SDS011;37382;45.192;9.790;2023-02-01T10:03:21;67.55;;;35.35;;
51298;SDS011;37382;45.192;9.790;2023-02-01T10:06:16;66.47;;;37.28;;
51298;SDS011;37382;45.192;9.790;2023-02-01T10:14:24;67.63;;;35.05;;
51298;SDS011;37382;45.192;9.790;2023-02-01T10:25:31;63.53;;;33.35;;
51298;SDS011;37382;45.192;9.790;2023-02-01T10:28:33;59.38;;;33.95;;
51298;SDS011;37382;45.192;9.790;2023-02-01T10:31:03;71.57;;;36.08;;
51298;SDS011;37382;45.192;9.790;2023-02-01T10:33:45;71.80;;;36.42;;
51298;SDS011;37382;45.192;9.790;2023-02-01T10:36:16;62.50;;;34.28;;
51298;SDS011;37382;45.192;9.790;2023-02-01T10:38:58;59.17;;;35.08;;
51298;SDS011;37382;45.192;9.790;2023-02-01T10:41:30;60.05;;;34.63;;
51298;SDS011;37382;45.192;9.790;2023-02-01T10:44:00;60.63;;;35.25;;
51298;SDS011;37382;45.192;9.790;2023-02-01T10:46:31;66.20;;;34.72;;
51298;SDS011;37382;45.192;9.790;2023-02-01T10:49:02;62.60;;;35.60;;
51298;SDS011;37382;45.192;9.790;2023-02-01T10:54:37;65.38;;;35.35;;
51298;SDS011;37382;45.192;9.790;2023-02-01T10:57:10;55.45;;;34.28;;
51298;SDS011;37382;45.192;9.790;2023-02-01T10:59:47;55.78;;;33.95;;
51298;SDS011;37382;45.192;9.790;2023-02-01T11:02:33;55.97;;;31.92;;
51298;SDS011;37382;45.192;9.790;2023-02-01T11:05:07;53.45;;;31.95;;
51298;SDS011;37382;45.192;9.790;2023-02-01T11:07:39;54.75;;;32.03;;
51298;SDS011;37382;45.192;9.790;2023-02-01T11:13:03;61.05;;;33.08;;
51298;SDS011;37382;45.192;9.790;2023-02-01T11:15:32;58.33;;;34.15;;
51298;SDS011;37382;45.192;9.790;2023-02-01T11:18:12;60.85;;;33.92;;
51298;SDS011;37382;45.192;9.790;2023-02-01T11:20:44;53.83;;;32.85;;
51298;SDS011;37382;45.192;9.790;2023-02-01T11:23:17;59.10;;;31.75;;
51298;SDS011;37382;45.192;9.790;2023-02-01T11:25:51;61.63;;;33.83;;
51298;SDS011;37382;45.192;9.790;2023-02-01T11:28:22;55.17;;;31.58;;
51298;SDS011;37382;45.192;9.790;2023-02-01T11:30:54;51.90;;;31.90;;
51298;SDS011;37382;45.192;9.790;2023-02-01T11:33:25;61.72;;;33.00;;
51298;SDS011;37382;45.192;9.790;2023-02-01T11:35:57;63.83;;;33.15;;
51298;SDS011;37382;45.192;9.790;2023-02-01T11:38:30;59.33;;;33.60;;
51298;SDS011;37382;45.192;9.790;2023-02-01T11:43:56;50.75;;;30.83;;
51298;SDS011;37382;45.192;9.790;2023-02-01T11:46:33;52.13;;;31.70;;
51298;SDS011;37382;45.192;9.790;2023-02-01T11:49:22;59.15;;;29.85;;
51298;SDS011;37382;45.192;9.790;2023-02-01T11:51:59;62.90;;;33.72;;
51298;SDS011;37382;45.192;9.790;2023-02-01T11:54:39;56.50;;;30.95;;
51298;SDS011;37382;45.192;9.790;2023-02-01T12:00:23;59.03;;;32.83;;
51298;SDS011;37382;45.192;9.790;2023-02-01T12:05:54;57.05;;;31.55;;
51298;SDS011;37382;45.192;9.790;2023-02-01T12:14:19;57.25;;;29.92;;
51298;SDS011;37382;45.192;9.790;2023-02-01T12:33:29;50.08;;;26.30;;
51298;SDS011;37382;45.192;9.790;2023-02-01T12:41:57;41.97;;;21.40;;
51298;SDS011;37382;45.192;9.790;2023-02-01T12:44:49;34.78;;;20.38;;
51298;SDS011;37382;45.192;9.790;2023-02-01T12:50:19;35.28;;;20.25;;
51298;SDS011;37382;45.192;9.790;2023-02-01T12:52:50;41.22;;;22.27;;
51298;SDS011;37382;45.192;9.790;2023-02-01T12:57:49;43.50;;;26.88;;
51298;SDS011;37382;45.192;9.790;2023-02-01T13:00:29;43.83;;;25.83;;
51298;SDS011;37382;45.192;9.790;2023-02-01T13:03:11;51.22;;;27.77;;
51298;SDS011;37382;45.192;9.790;2023-02-01T13:05:58;45.63;;;26.13;;
51298;SDS011;37382;45.192;9.790;2023-02-01T13:11:22;47.90;;;25.83;;
51298;SDS011;37382;45.192;9.790;2023-02-01T13:14:03;40.20;;;24.63;;
51298;SDS011;37382;45.192;9.790;2023-02-01T13:16:35;39.85;;;25.02;;
51298;SDS011;37382;45.192;9.790;2023-02-01T13:19:22;45.08;;;22.90;;
51298;SDS011;37382;45.192;9.790;2023-02-01T13:21:57;35.60;;;23.02;;
51298;SDS011;37382;45.192;9.790;2023-02-01T13:27:32;42.28;;;23.55;;
51298;SDS011;37382;45.192;9.790;2023-02-01T13:30:23;40.13;;;21.70;;
51298;SDS011;37382;45.192;9.790;2023-02-01T13:44:26;37.90;;;25.05;;
51298;SDS011;37382;45.192;9.790;2023-02-01T13:47:00;40.13;;;24.60;;
51298;SDS011;37382;45.192;9.790;2023-02-01T13:49:31;47.50;;;23.58;;
51298;SDS011;37382;45.192;9.790;2023-02-01T13:52:06;39.78;;;22.85;;
51298;SDS011;37382;45.192;9.790;2023-02-01T13:54:48;44.05;;;25.30;;
51298;SDS011;37382;45.192;9.790;2023-02-01T13:57:35;41.35;;;23.10;;
51298;SDS011;37382;45.192;9.790;2023-02-01T14:21:28;30.77;;;18.10;;
51298;SDS011;37382;45.192;9.790;2023-02-01T14:23:59;36.28;;;17.02;;
51298;SDS011;37382;45.192;9.790;2023-02-01T14:29:22;33.22;;;17.30;;
51298;SDS011;37382;45.192;9.790;2023-02-01T14:34:53;29.60;;;17.10;;
51298;SDS011;37382;45.192;9.790;2023-02-01T14:50:40;28.80;;;18.20;;
51298;SDS011;37382;45.192;9.790;2023-02-01T14:55:42;36.85;;;17.38;;
51298;SDS011;37382;45.192;9.790;2023-02-01T14:58:13;35.38;;;16.90;;
51298;SDS011;37382;45.192;9.790;2023-02-01T15:01:02;28.50;;;17.45;;
51298;SDS011;37382;45.192;9.790;2023-02-01T15:14:35;39.40;;;17.50;;
51298;SDS011;37382;45.192;9.790;2023-02-01T15:19:54;32.58;;;18.08;;
51298;SDS011;37382;45.192;9.790;2023-02-01T15:22:22;36.83;;;19.13;;
51298;SDS011;37382;45.192;9.790;2023-02-01T15:24:53;37.50;;;18.02;;
51298;SDS011;37382;45.192;9.790;2023-02-01T15:27:22;32.33;;;18.00;;
51298;SDS011;37382;45.192;9.790;2023-02-01T15:29:51;28.88;;;17.65;;
51298;SDS011;37382;45.192;9.790;2023-02-01T15:32:31;34.03;;;19.08;;
51298;SDS011;37382;45.192;9.790;2023-02-01T15:35:05;31.20;;;18.05;;
51298;SDS011;37382;45.192;9.790;2023-02-01T15:37:53;38.97;;;19.42;;
51298;SDS011;37382;45.192;9.790;2023-02-01T15:43:33;42.17;;;22.98;;
51298;SDS011;37382;45.192;9.790;2023-02-01T15:46:16;44.78;;;26.63;;
51298;SDS011;37382;45.192;9.790;2023-02-01T15:48:49;63.75;;;30.92;;
51298;SDS011;37382;45.192;9.790;2023-02-01T15:51:20;70.03;;;40.03;;
51298;SDS011;37382;45.192;9.790;2023-02-01T15:53:51;68.03;;;39.13;;
51298;SDS011;37382;45.192;9.790;2023-02-01T15:56:23;54.58;;;33.72;;
51298;SDS011;37382;45.192;9.790;2023-02-01T15:58:54;59.63;;;34.20;;
51298;SDS011;37382;45.192;9.790;2023-02-01T16:01:24;52.72;;;32.63;;
51298;SDS011;37382;45.192;9.790;2023-02-01T16:06:58;52.30;;;30.58;;
51298;SDS011;37382;45.192;9.790;2023-02-01T16:09:40;43.58;;;29.92;;
51298;SDS011;37382;45.192;9.790;2023-02-01T16:12:30;50.45;;;29.77;;
51298;SDS011;37382;45.192;9.790;2023-02-01T16:14:58;49.55;;;31.20;;
51298;SDS011;37382;45.192;9.790;2023-02-01T16:17:26;54.78;;;31.40;;
51298;SDS011;37382;45.192;9.790;2023-02-01T16:19:54;49.90;;;30.65;;
51298;SDS011;37382;45.192;9.790;2023-02-01T16:22:22;47.67;;;30.77;;
51298;SDS011;37382;45.192;9.790;2023-02-01T16:24:49;53.40;;;31.13;;
51298;SDS011;37382;45.192;9.790;2023-02-01T16:27:17;65.97;;;34.05;;
51298;SDS011;37382;45.192;9.790;2023-02-01T16:29:44;61.75;;;33.13;;
51298;SDS011;37382;45.192;9.790;2023-02-01T16:32:19;55.85;;;32.17;;
51298;SDS011;37382;45.192;9.790;2023-02-01T16:34:48;61.28;;;33.40;;
51298;SDS011;37382;45.192;9.790;2023-02-01T16:37:18;50.33;;;28.73;;
51298;SDS011;37382;45.192;9.790;2023-02-01T16:42:15;53.28;;;30.45;;
51298;SDS011;37382;45.192;9.790;2023-02-01T16:44:43;52.63;;;31.38;;
51298;SDS011;37382;45.192;9.790;2023-02-01T16:47:12;54.10;;;29.17;;
51298;SDS011;37382;45.192;9.790;2023-02-01T16:52:24;44.30;;;28.45;;
51298;SDS011;37382;45.192;9.790;2023-02-01T16:54:52;53.45;;;29.55;;
51298;SDS011;37382;45.192;9.790;2023-02-01T16:57:21;55.70;;;30.05;;
51298;SDS011;37382;45.192;9.790;2023-02-01T16:59:50;51.83;;;30.50;;
51298;SDS011;37382;45.192;9.790;2023-02-01T17:02:18;48.25;;;29.67;;
51298;SDS011;37382;45.192;9.790;2023-02-01T17:04:47;51.33;;;29.95;;
51298;SDS011;37382;45.192;9.790;2023-02-01T17:07:16;56.28;;;32.83;;
51298;SDS011;37382;45.192;9.790;2023-02-01T17:09:46;47.05;;;28.33;;
51298;SDS011;37382;45.192;9.790;2023-02-01T17:12:20;53.17;;;29.95;;
51298;SDS011;37382;45.192;9.790;2023-02-01T17:14:50;57.90;;;31.92;;
51298;SDS011;37382;45.192;9.790;2023-02-01T17:17:19;70.45;;;41.65;;
51298;SDS011;37382;45.192;9.790;2023-02-01T17:20:04;64.32;;;41.72;;
51298;SDS011;37382;45.192;9.790;2023-02-01T17:22:33;79.07;;;46.17;;
51298;SDS011;37382;45.192;9.790;2023-02-01T17:25:00;89.53;;;49.03;;
51298;SDS011;37382;45.192;9.790;2023-02-01T17:27:28;100.68;;;49.50;;
51298;SDS011;37382;45.192;9.790;2023-02-01T17:29:56;105.95;;;47.75;;
51298;SDS011;37382;45.192;9.790;2023-02-01T17:32:23;100.28;;;47.25;;
51298;SDS011;37382;45.192;9.790;2023-02-01T17:34:52;75.93;;;38.55;;
51298;SDS011;37382;45.192;9.790;2023-02-01T17:39:49;65.18;;;35.72;;
51298;SDS011;37382;45.192;9.790;2023-02-01T17:42:24;74.30;;;43.38;;
51298;SDS011;37382;45.192;9.790;2023-02-01T17:44:55;102.82;;;55.42;;
51298;SDS011;37382;45.192;9.790;2023-02-01T17:47:25;176.90;;;87.68;;
51298;SDS011;37382;45.192;9.790;2023-02-01T17:49:53;88.47;;;43.55;;
51298;SDS011;37382;45.192;9.790;2023-02-01T17:52:23;81.70;;;34.47;;
51298;SDS011;37382;45.192;9.790;2023-02-01T17:54:52;45.90;;;24.05;;
51298;SDS011;37382;45.192;9.790;2023-02-01T17:57:20;40.05;;;17.95;;
51298;SDS011;37382;45.192;9.790;2023-02-01T17:59:48;45.42;;;17.92;;
51298;SDS011;37382;45.192;9.790;2023-02-01T18:02:20;41.28;;;18.35;;
51298;SDS011;37382;45.192;9.790;2023-02-01T18:04:49;43.97;;;20.95;;
51298;SDS011;37382;45.192;9.790;2023-02-01T18:07:17;27.27;;;12.55;;
51298;SDS011;37382;45.192;9.790;2023-02-01T18:09:46;16.38;;;9.05;;
51298;SDS011;37382;45.192;9.790;2023-02-01T18:12:22;35.75;;;13.45;;
51298;SDS011;37382;45.192;9.790;2023-02-01T18:14:52;13.15;;;6.75;;
51298;SDS011;37382;45.192;9.790;2023-02-01T18:17:19;20.90;;;8.43;;
51298;SDS011;37382;45.192;9.790;2023-02-01T18:19:47;12.23;;;6.35;;
51298;SDS011;37382;45.192;9.790;2023-02-01T18:22:18;20.02;;;10.00;;
51298;SDS011;37382;45.192;9.790;2023-02-01T18:24:49;22.40;;;9.43;;
51298;SDS011;37382;45.192;9.790;2023-02-01T18:27:17;36.90;;;18.17;;
51298;SDS011;37382;45.192;9.790;2023-02-01T18:29:45;25.13;;;14.82;;
51298;SDS011;37382;45.192;9.790;2023-02-01T18:32:12;37.78;;;20.48;;
51298;SDS011;37382;45.192;9.790;2023-02-01T18:34:40;37.40;;;18.52;;
51298;SDS011;37382;45.192;9.790;2023-02-01T18:37:07;32.13;;;18.65;;
51298;SDS011;37382;45.192;9.790;2023-02-01T18:39:35;33.25;;;18.85;;
51298;SDS011;37382;45.192;9.790;2023-02-01T18:42:05;39.53;;;21.13;;
51298;SDS011;37382;45.192;9.790;2023-02-01T18:44:36;34.20;;;16.17;;
51298;SDS011;37382;45.192;9.790;2023-02-01T18:47:03;23.20;;;10.35;;
51298;SDS011;37382;45.192;9.790;2023-02-01T18:49:31;21.60;;;7.75;;
51298;SDS011;37382;45.192;9.790;2023-02-01T18:51:59;67.68;;;23.08;;
51298;SDS011;37382;45.192;9.790;2023-02-01T18:54:26;30.45;;;8.52;;
51298;SDS011;37382;45.192;9.790;2023-02-01T18:56:54;64.35;;;20.23;;
51298;SDS011;37382;45.192;9.790;2023-02-01T18:59:22;70.97;;;25.27;;
51298;SDS011;37382;45.192;9.790;2023-02-01T19:01:49;20.58;;;7.53;;
51298;SDS011;37382;45.192;9.790;2023-02-01T19:04:16;20.75;;;9.02;;
51298;SDS011;37382;45.192;9.790;2023-02-01T19:06:48;36.75;;;14.98;;
51298;SDS011;37382;45.192;9.790;2023-02-01T19:09:16;82.40;;;35.08;;
51298;SDS011;37382;45.192;9.790;2023-02-01T19:11:43;35.72;;;11.57;;
51298;SDS011;37382;45.192;9.790;2023-02-01T19:14:11;42.10;;;19.77;;
51298;SDS011;37382;45.192;9.790;2023-02-01T19:16:38;24.67;;;8.18;;
51298;SDS011;37382;45.192;9.790;2023-02-01T19:19:06;22.02;;;9.05;;
51298;SDS011;37382;45.192;9.790;2023-02-01T19:21:33;26.73;;;13.05;;
51298;SDS011;37382;45.192;9.790;2023-02-01T19:24:01;16.35;;;6.53;;
51298;SDS011;37382;45.192;9.790;2023-02-01T19:26:29;25.15;;;8.50;;
51298;SDS011;37382;45.192;9.790;2023-02-01T19:28:57;15.40;;;7.38;;
51298;SDS011;37382;45.192;9.790;2023-02-01T19:31:25;15.73;;;8.48;;
51298;SDS011;37382;45.192;9.790;2023-02-01T19:33:53;46.00;;;16.20;;
51298;SDS011;37382;45.192;9.790;2023-02-01T19:36:21;18.70;;;8.27;;
51298;SDS011;37382;45.192;9.790;2023-02-01T19:38:48;14.45;;;8.23;;
51298;SDS011;37382;45.192;9.790;2023-02-01T19:41:15;15.27;;;7.32;;
51298;SDS011;37382;45.192;9.790;2023-02-01T19:43:43;16.73;;;7.95;;
51298;SDS011;37382;45.192;9.790;2023-02-01T19:46:11;17.20;;;7.63;;
51298;SDS011;37382;45.192;9.790;2023-02-01T19:48:38;20.55;;;10.95;;
51298;SDS011;37382;45.192;9.790;2023-02-01T19:51:06;22.48;;;10.82;;
51298;SDS011;37382;45.192;9.790;2023-02-01T19:53:35;19.23;;;9.80;;
51298;SDS011;37382;45.192;9.790;2023-02-01T19:56:03;22.77;;;11.43;;
51298;SDS011;37382;45.192;9.790;2023-02-01T19:58:31;22.90;;;10.70;;
51298;SDS011;37382;45.192;9.790;2023-02-01T20:00:58;12.82;;;6.05;;
51298;SDS011;37382;45.192;9.790;2023-02-01T20:03:28;21.33;;;5.85;;
51298;SDS011;37382;45.192;9.790;2023-02-01T20:05:56;18.33;;;7.63;;
51298;SDS011;37382;45.192;9.790;2023-02-01T20:08:25;37.63;;;12.07;;
51298;SDS011;37382;45.192;9.790;2023-02-01T20:10:53;85.93;;;29.13;;
51298;SDS011;37382;45.192;9.790;2023-02-01T20:13:20;78.03;;;23.40;;
51298;SDS011;37382;45.192;9.790;2023-02-01T20:15:48;29.90;;;12.25;;
51298;SDS011;37382;45.192;9.790;2023-02-01T20:18:22;21.17;;;10.80;;
51298;SDS011;37382;45.192;9.790;2023-02-01T20:20:49;39.30;;;14.88;;
51298;SDS011;37382;45.192;9.790;2023-02-01T20:23:22;29.35;;;8.68;;
51298;SDS011;37382;45.192;9.790;2023-02-01T20:25:50;12.10;;;4.50;;
51298;SDS011;37382;45.192;9.790;2023-02-01T20:28:17;23.38;;;5.82;;
51298;SDS011;37382;45.192;9.790;2023-02-01T20:30:45;12.68;;;6.20;;
51298;SDS011;37382;45.192;9.790;2023-02-01T20:33:13;12.38;;;6.15;;
51298;SDS011;37382;45.192;9.790;2023-02-01T20:35:44;13.18;;;6.43;;
51298;SDS011;37382;45.192;9.790;2023-02-01T20:38:12;17.92;;;5.43;;
51298;SDS011;37382;45.192;9.790;2023-02-01T20:40:40;10.63;;;4.90;;
51298;SDS011;37382;45.192;9.790;2023-02-01T20:43:09;10.93;;;5.07;;
51298;SDS011;37382;45.192;9.790;2023-02-01T20:45:40;13.05;;;5.60;;
51298;SDS011;37382;45.192;9.790;2023-02-01T20:48:09;16.58;;;6.38;;
51298;SDS011;37382;45.192;9.790;2023-02-01T20:50:38;12.48;;;5.45;;
51298;SDS011;37382;45.192;9.790;2023-02-01T20:53:05;15.10;;;6.53;;
51298;SDS011;37382;45.192;9.790;2023-02-01T20:55:34;10.02;;;4.75;;
51298;SDS011;37382;45.192;9.790;2023-02-01T20:58:02;15.70;;;5.60;;
51298;SDS011;37382;45.192;9.790;2023-02-01T21:00:30;18.63;;;5.18;;
51298;SDS011;37382;45.192;9.790;2023-02-01T21:02:58;10.68;;;4.72;;
51298;SDS011;37382;45.192;9.790;2023-02-01T21:05:26;18.25;;;5.80;;
51298;SDS011;37382;45.192;9.790;2023-02-01T21:08:10;12.60;;;5.05;;
51298;SDS011;37382;45.192;9.790;2023-02-01T21:10:38;14.32;;;5.45;;
51298;SDS011;37382;45.192;9.790;2023-02-01T21:13:06;12.07;;;5.00;;
51298;SDS011;37382;45.192;9.790;2023-02-01T21:15:34;11.77;;;5.35;;
51298;SDS011;37382;45.192;9.790;2023-02-01T21:18:03;17.33;;;6.13;;
51298;SDS011;37382;45.192;9.790;2023-02-01T21:20:32;17.85;;;6.05;;
51298;SDS011;37382;45.192;9.790;2023-02-01T21:22:59;13.85;;;5.57;;
51298;SDS011;37382;45.192;9.790;2023-02-01T21:25:27;13.57;;;4.78;;
51298;SDS011;37382;45.192;9.790;2023-02-01T21:27:54;14.50;;;5.53;;
51298;SDS011;37382;45.192;9.790;2023-02-01T21:30:22;21.38;;;6.50;;
51298;SDS011;37382;45.192;9.790;2023-02-01T21:32:50;14.32;;;6.10;;
51298;SDS011;37382;45.192;9.790;2023-02-01T21:35:17;15.18;;;5.78;;
51298;SDS011;37382;45.192;9.790;2023-02-01T21:37:44;13.77;;;5.50;;
51298;SDS011;37382;45.192;9.790;2023-02-01T21:40:12;18.65;;;6.45;;
51298;SDS011;37382;45.192;9.790;2023-02-01T21:42:40;12.15;;;5.35;;
51298;SDS011;37382;45.192;9.790;2023-02-01T21:45:12;10.05;;;5.22;;
51298;SDS011;37382;45.192;9.790;2023-02-01T21:47:40;18.55;;;5.43;;
51298;SDS011;37382;45.192;9.790;2023-02-01T21:50:09;18.33;;;5.72;;
51298;SDS011;37382;45.192;9.790;2023-02-01T21:52:42;18.90;;;5.43;;
51298;SDS011;37382;45.192;9.790;2023-02-01T21:55:11;17.77;;;6.57;;
51298;SDS011;37382;45.192;9.790;2023-02-01T21:57:39;11.18;;;5.63;;
51298;SDS011;37382;45.192;9.790;2023-02-01T22:00:07;15.80;;;5.82;;
51298;SDS011;37382;45.192;9.790;2023-02-01T22:02:35;20.10;;;5.97;;
51298;SDS011;37382;45.192;9.790;2023-02-01T22:05:03;14.30;;;5.78;;
51298;SDS011;37382;45.192;9.790;2023-02-01T22:07:32;23.23;;;5.43;;
51298;SDS011;37382;45.192;9.790;2023-02-01T22:10:02;10.40;;;5.35;;
51298;SDS011;37382;45.192;9.790;2023-02-01T22:12:30;14.52;;;5.00;;
51298;SDS011;37382;45.192;9.790;2023-02-01T22:14:58;15.32;;;5.68;;
51298;SDS011;37382;45.192;9.790;2023-02-01T22:17:26;8.65;;;5.38;;
51298;SDS011;37382;45.192;9.790;2023-02-01T22:19:54;22.25;;;7.93;;
51298;SDS011;37382;45.192;9.790;2023-02-01T22:22:21;28.13;;;7.63;;
51298;SDS011;37382;45.192;9.790;2023-02-01T22:24:48;16.38;;;6.53;;
51298;SDS011;37382;45.192;9.790;2023-02-01T22:27:15;14.18;;;5.80;;
51298;SDS011;37382;45.192;9.790;2023-02-01T22:29:43;17.98;;;6.22;;
51298;SDS011;37382;45.192;9.790;2023-02-01T22:32:11;16.13;;;5.30;;